This is the latest recevied weather packets stored in our database for station/object N2OCK. If no packets are shown the sender has not sent any weather packets the latest 1 day(s).
| Time | Temp. | Humidity | Pressure | Rain* | Wind** | Luminosity | Snow |
|---|---|---|---|---|---|---|---|
| 1777985155 | 16.67° C | 78% | 1011.5 hPa | 0 mm | 1.79 m/s, 205° | 350 W/m² | - |
| 1777984851 | 16.11° C | 79% | 1011.6 hPa | 0 mm | 1.34 m/s, 256° | 326 W/m² | - |
| 1777984548 | 15.56° C | 81% | 1011.5 hPa | 0 mm | 0.45 m/s, 216° | 126 W/m² | - |
| 1777984244 | 15.56° C | 82% | 1011.6 hPa | 0 mm | 0 m/s | 122 W/m² | - |
| 1777983941 | 15.56° C | 81% | 1011.6 hPa | 0 mm | 0 m/s | 137 W/m² | - |
| 1777983638 | 16.11° C | 81% | 1011.8 hPa | 0 mm | 0.45 m/s, 222° | 142 W/m² | - |
| 1777983334 | 15.56° C | 82% | 1011.7 hPa | 0 mm | 0.89 m/s, 219° | 249 W/m² | - |
| 1777983031 | 15.56° C | 83% | 1011.6 hPa | 0 mm | 0.45 m/s, 149° | 132 W/m² | - |
| 1777982728 | 15° C | 84% | 1011.7 hPa | 0 mm | 0 m/s | 141 W/m² | - |
| 1777982423 | 15° C | 85% | 1011.7 hPa | 0 mm | 0.45 m/s, 210° | 126 W/m² | - |
| 1777982118 | 14.44° C | 86% | 1011.7 hPa | 0 mm | 0.45 m/s, 212° | 134 W/m² | - |
| 1777981816 | 14.44° C | 87% | 1011.7 hPa | 0 mm | 0 m/s | 102 W/m² | - |
| 1777981513 | 14.44° C | 87% | 1011.9 hPa | 0 mm | 0.89 m/s, 256° | 81 W/m² | - |
| 1777981209 | 14.44° C | 87% | 1012.1 hPa | 0 mm | 0.89 m/s, 237° | 97 W/m² | - |
| 1777980906 | 14.44° C | 87% | 1011.9 hPa | 0 mm | 0 m/s | 89 W/m² | - |
| 1777980601 | 14.44° C | 87% | 1012 hPa | 0 mm | 0.89 m/s, 209° | 94 W/m² | - |
| 1777980299 | 13.89° C | 89% | 1011.9 hPa | 0 mm | 0 m/s | 116 W/m² | - |
| 1777979996 | 13.33° C | 91% | 1011.8 hPa | 0 mm | 0.89 m/s, 205° | 72 W/m² | - |
| 1777979696 | 12.78° C | 92% | 1011.7 hPa | 0 mm | 0.45 m/s, 215° | 57 W/m² | - |
| 1777979392 | 12.78° C | 93% | 1012 hPa | 0 mm | 0.45 m/s, 214° | 52 W/m² | - |
| 1777979089 | 12.78° C | 93% | 1011.6 hPa | 0 mm | 0 m/s | 46 W/m² | - |
| 1777978786 | 12.78° C | 93% | 1011.7 hPa | 0 mm | 0 m/s | 38 W/m² | - |
| 1777978482 | 12.22° C | 94% | 1011.8 hPa | 0 mm | 0.89 m/s, 219° | 39 W/m² | - |
| 1777978178 | 12.22° C | 94% | 1011.6 hPa | 0 mm | 0.89 m/s, 247° | 44 W/m² | - |
| 1777977878 | 12.22° C | 95% | 1011.3 hPa | 0 mm | 0 m/s | 49 W/m² | - |
* Rain latest hour (hover to see other rain measurements)
** Current wind speed in m/s (hover to see current wind gust speed)